Flight Track Log - Related Links

Times and Time Zones

All times are in EDT time to prevent confusion due to time zone crossing. See the SWA2166 flight status page for this flight to view local times or setup timezone preferences in your user account.


Time Position Orientation Groundspeed Altitude Reporting Facility
EDT Latitude Longitude Course Direction KTS MPH feet Rate Location/Type
Wed 09:57:30 PM 29.6497 -95.2850 North 144 166 600  Level Houston Center
Wed 09:58:15 PM 29.6814 -95.2842 North 182 209 2,000 2,131 Climbing Houston Center
Wed 09:59:17 PM 29.6994 -95.2158 73° East 217 250 4,400 2,732 Climbing Houston Center
Wed 10:00:18 PM 29.6978 -95.1378 91° East 247 284 7,600 3,122 Climbing Houston Center
Wed 10:01:20 PM 29.7247 -95.0606 68° East 256 295 10,800 2,832 Climbing Houston Center
Wed 10:02:23 PM 29.7256 -94.9725 89° East 271 312 13,500 2,537 Climbing Houston Center
Wed 10:03:23 PM 29.7183 -94.8803 95° East 283 326 16,000 1,854 Climbing Houston Center
Wed 10:04:26 PM 29.7075 -94.7672 96° East 343 395 17,300 2,000 Climbing Houston Center
Wed 10:05:26 PM 29.6933 -94.6483 98° East 375 432 20,100 2,410 Climbing Houston Center
Wed 10:06:28 PM 29.6903 -94.5250 92° East 387 445 22,200 2,293 Climbing Houston Center
Wed 10:07:29 PM 29.6892 -94.3756 90° East 391 450 24,800 2,049 Climbing Houston Center
Wed 10:08:31 PM 29.6883 -94.2444 90° East 402 463 26,400 1,366 Climbing Houston Center
Wed 10:09:32 PM 29.6569 -94.1256 107° East 410 472 27,600 1,258 Climbing Houston Center
Wed 10:10:35 PM 29.6211 -93.9975 108° East 419 482 29,000 677 Climbing Houston Center
Wed 10:11:36 PM 29.6489 -93.8481 78° East 472 543 29,000  Level Houston Center
Wed 10:12:37 PM 29.6917 -93.6622 75° East 501 577 29,000  Level Houston Center
Wed 10:13:39 PM 29.7236 -93.5069 77° East 502 578 29,000 -49 Level Houston Center
Wed 10:14:40 PM 29.7561 -93.3531 76° East 501 577 28,900  Descending Houston Center
Wed 10:15:44 PM 29.7875 -93.2036 76° East 488 562 29,000 49 Climbing Houston Center
Wed 10:16:43 PM 29.8194 -93.0539 76° East 486 559 29,000 496 Level Houston Center
Wed 10:17:45 PM 29.8514 -92.9047 76° East 484 557 30,000 976 Climbing Houston Center
Wed 10:18:46 PM 29.8900 -92.7211 76° East 496 571 31,000 488 Climbing Houston Center
Wed 10:19:48 PM 29.9228 -92.5633 76° East 507 583 31,000  Level Houston Center
Wed 10:20:49 PM 29.9575 -92.4000 76° East 521 600 31,000 585 Level Houston Center
Wed 10:21:51 PM 29.9914 -92.2347 77° East 531 611 32,200 1,366 Climbing Houston Center
Wed 10:22:52 PM 30.0239 -92.0758 77° East 516 594 33,800 1,268 Climbing Houston Center
Wed 10:23:54 PM 30.0558 -91.9150 77° East 516 594 34,800 1,065 Climbing Houston Center
Wed 10:24:56 PM 30.0956 -91.7228 77° East 526 605 36,000 1,024 Climbing Houston Center
Wed 10:25:57 PM 30.1317 -91.5533 76° East 537 618 36,900 492 Climbing Houston Center
Wed 10:26:58 PM 30.1642 -91.3861 77° East 536 617 37,000 49 Climbing Houston Center
Wed 10:28:00 PM 30.1975 -91.2181 77° East 538 619 37,000  Level Houston Center
Wed 10:29:01 PM 30.2308 -91.0492 77° East 539 620 37,000  Level Houston Center
Wed 10:30:03 PM 30.2636 -90.8783 77° East 542 624 37,000  Level Houston Center
Wed 10:31:04 PM 30.2981 -90.7078 77° East 546 628 37,000  Level Houston Center
Wed 10:32:06 PM 30.3297 -90.5361 78° East 545 627 37,000  Level Houston Center
Wed 10:33:07 PM 30.3625 -90.3644 77° East 547 629 37,000  Level Houston Center
Wed 10:34:08 PM 30.4017 -90.1586 78° East 545 627 37,000  Level Houston Center
Wed 10:35:10 PM 30.4339 -89.9864 78° East 545 627 37,000  Level Houston Center
Wed 10:36:11 PM 30.4686 -89.8086 77° East 547 629 37,000  Level Houston Center
Wed 10:37:14 PM 30.5011 -89.6306 78° East 550 633 37,000  Level Houston Center
Wed 10:38:14 PM 30.5322 -89.4572 78° East 546 628 37,000  Level Houston Center
Wed 10:39:16 PM 30.5631 -89.2858 78° East 542 624 37,000  Level Houston Center
Wed 10:40:17 PM 30.5914 -89.1139 79° East 542 624 37,000  Level Houston Center
Wed 10:41:18 PM 30.6228 -88.9439 78° East 538 619 37,000  Level Houston Center
Wed 10:42:20 PM 30.6492 -88.7878 79° East 533 613 37,000  Level Houston Center
Wed 10:43:21 PM 30.6836 -88.5864 79° East 532 612 37,000  Level Houston Center
Wed 10:44:23 PM 30.7100 -88.4403 78° East 530 610 37,000  Level Houston Center
Wed 10:45:24 PM 30.7761 -88.2917 63° Northeast 521 600 37,000  Level Houston Center
Wed 10:46:25 PM 30.8861 -88.1431 49° Northeast 507 583 37,000  Level Houston Center
Wed 10:47:27 PM 30.9797 -88.0200 48° Northeast 507 583 37,000  Level Houston Center
Wed 10:48:28 PM 31.0708 -87.8975 49° Northeast 499 574 37,000  Level Houston Center
Wed 10:49:30 PM 31.1586 -87.7758 50° Northeast 492 566 37,000  Level Houston Center
Wed 10:50:31 PM 31.2564 -87.6497 48° Northeast 496 571 37,000  Level Houston Center
Wed 10:51:33 PM 31.3481 -87.5292 48° Northeast 498 573 37,000  Level Houston Center
Wed 10:52:27 PM 31.4228 -87.4236 50° Northeast 495 570 37,000  Level Atlanta Center
Wed 10:53:27 PM 31.5075 -87.2978 52° Northeast 495 570 37,000  Level Atlanta Center
Wed 10:54:27 PM 31.5919 -87.1742 51° Northeast 490 564 37,000  Level Atlanta Center
Wed 10:55:27 PM 31.6744 -87.0550 51° Northeast 478 550 37,000  Level Atlanta Center
Wed 10:56:27 PM 31.7503 -86.9328 54° Northeast 467 537 37,000 -250 Level Atlanta Center
Wed 10:57:27 PM 31.8367 -86.8036 52° Northeast 461 531 36,500 -1,000 Descending Atlanta Center
Wed 10:58:27 PM 31.9164 -86.6886 51° Northeast 456 525 35,000 -750 Descending Atlanta Center
Wed 10:59:27 PM 32.0025 -86.5736 49° Northeast 456 525 35,000  Level Atlanta Center
Wed 11:00:27 PM 32.0797 -86.4606 51° Northeast 456 525 35,000 -350 Level Atlanta Center
Wed 11:01:27 PM 32.1467 -86.3472 55° Northeast 440 506 34,300 -1,000 Descending Atlanta Center
Wed 11:02:27 PM 32.2236 -86.2411 49° Northeast 438 504 33,000 -650 Descending Atlanta Center
Wed 11:03:27 PM 32.2947 -86.1225 55° Northeast 443 510 33,000  Level Atlanta Center
Wed 11:04:27 PM 32.3717 -86.0039 52° Northeast 448 516 33,000  Level Atlanta Center
Wed 11:05:27 PM 32.4508 -85.8875 51° Northeast 453 521 33,000  Level Atlanta Center
Wed 11:06:27 PM 32.5361 -85.7536 53° Northeast 464 534 33,000  Level Atlanta Center
Wed 11:07:27 PM 32.6128 -85.6392 51° Northeast 459 528 33,000  Level Atlanta Center
Wed 11:08:27 PM 32.6936 -85.5222 51° Northeast 454 522 33,000  Level Atlanta Center
Wed 11:09:27 PM 32.7681 -85.4025 53° Northeast 454 522 33,000  Level Atlanta Center
Wed 11:10:27 PM 32.8444 -85.2825 53° Northeast 454 522 33,000  Level Atlanta Center
Wed 11:11:27 PM 32.9208 -85.1622 53° Northeast 454 522 33,000  Level Atlanta Center
Wed 11:12:27 PM 32.9992 -85.0494 50° Northeast 448 516 33,000  Level Atlanta Center
Wed 11:13:27 PM 33.0750 -84.9314 53° Northeast 443 510 33,000  Level Atlanta Center
Wed 11:14:27 PM 33.1511 -84.8131 52° Northeast 443 510 33,000  Level Atlanta Center
Wed 11:15:27 PM 33.2269 -84.6919 53° Northeast 443 510 33,000  Level Atlanta Center
Wed 11:16:27 PM 33.3006 -84.5733 53° Northeast 443 510 33,000  Level Atlanta Center
Wed 11:17:27 PM 33.3781 -84.4517 53° Northeast 449 517 33,000  Level Atlanta Center
Wed 11:18:27 PM 33.4517 -84.3350 53° Northeast 454 522 33,000  Level Atlanta Center
Wed 11:19:27 PM 33.5269 -84.2133 53° Northeast 454 522 33,000  Level Atlanta Center
Wed 11:20:27 PM 33.6042 -84.0911 53° Northeast 454 522 33,000  Level Atlanta Center
Wed 11:21:27 PM 33.6814 -83.9689 53° Northeast 454 522 33,000  Level Atlanta Center
Wed 11:22:27 PM 33.7564 -83.8439 54° Northeast 454 522 33,000  Level Atlanta Center
Wed 11:23:27 PM 33.8253 -83.7386 52° Northeast 454 522 33,000  Level Atlanta Center
Wed 11:24:27 PM 33.9000 -83.6133 54° Northeast 459 528 33,000  Level Atlanta Center
Wed 11:25:27 PM 33.9767 -83.4903 53° Northeast 454 522 33,000  Level Atlanta Center
Wed 11:26:27 PM 34.0533 -83.3669 53° Northeast 454 522 33,000  Level Atlanta Center
Wed 11:27:27 PM 34.1278 -83.2458 53° Northeast 454 522 33,000  Level Atlanta Center
Wed 11:28:27 PM 34.2042 -83.1194 54° Northeast 463 533 33,000  Level Atlanta Center
Wed 11:29:27 PM 34.2825 -82.9956 53° Northeast 457 526 33,000  Level Atlanta Center
Wed 11:30:27 PM 34.3564 -82.8636 56° Northeast 462 532 33,000  Level Atlanta Center
Wed 11:31:27 PM 34.4406 -82.7267 53° Northeast 462 532 33,000  Level Atlanta Center
Wed 11:32:27 PM 34.5206 -82.5992 53° Northeast 462 532 33,000  Level Atlanta Center
Wed 11:33:27 PM 34.5922 -82.4869 52° Northeast 462 532 33,000  Level Atlanta Center
Wed 11:34:27 PM 34.6678 -82.3592 54° Northeast 462 532 33,000  Level Atlanta Center
Wed 11:35:27 PM 34.7453 -82.2314 54° Northeast 462 532 33,000  Level Atlanta Center
Wed 11:36:27 PM 34.8203 -82.1006 55° Northeast 462 532 33,000  Level Atlanta Center
Wed 11:37:27 PM 34.8956 -81.9747 54° Northeast 462 532 33,000  Level Atlanta Center
Wed 11:38:27 PM 34.9706 -81.8514 53° Northeast 457 526 33,000  Level Atlanta Center
Wed 11:39:27 PM 35.0475 -81.7200 54° Northeast 457 526 33,000  Level Atlanta Center
Wed 11:40:27 PM 35.1203 -81.5961 54° Northeast 452 520 33,000  Level Atlanta Center
Wed 11:41:27 PM 35.1947 -81.4667 55° Northeast 457 526 33,000  Level Atlanta Center
Wed 11:42:27 PM 35.2692 -81.3372 55° Northeast 457 526 33,000  Level Atlanta Center
Wed 11:43:27 PM 35.3394 -81.2128 55° Northeast 452 520 33,000 -700 Level Atlanta Center
Wed 11:44:27 PM 35.4175 -81.0775 55° Northeast 468 539 31,600 -1,000 Descending Atlanta Center
Wed 11:45:27 PM 35.4936 -80.9497 54° Northeast 468 539 31,000 -300 Descending Atlanta Center
Wed 11:46:27 PM 35.5675 -80.8167 56° Northeast 468 539 31,000  Level Atlanta Center
Wed 11:47:27 PM 35.6414 -80.6911 54° Northeast 457 526 31,000  Level Atlanta Center
Wed 11:48:27 PM 35.7169 -80.5603 55° Northeast 457 526 31,000  Level Atlanta Center
Wed 11:49:27 PM 35.7922 -80.4264 55° Northeast 462 532 31,000  Level Atlanta Center
Wed 11:50:27 PM 35.8717 -80.2844 55° Northeast 456 525 31,000  Level Atlanta Center
Wed 11:51:27 PM 35.9447 -80.1531 55° Northeast 461 531 31,000  Level Atlanta Center
Wed 11:53:19 PM 36.0756 -79.9275 54° Northeast 453 521 31,000  Level Washington Center
Wed 11:54:19 PM 36.1511 -79.7953 55° Northeast 458 527 31,000  Level Washington Center
Wed 11:55:19 PM 36.2311 -79.6503 56° Northeast 466 536 31,000  Level Washington Center
Wed 11:56:19 PM 36.3022 -79.5197 56° Northeast 466 536 31,000  Level Washington Center
Wed 11:57:19 PM 36.3750 -79.4047 52° Northeast 466 536 31,000  Level Washington Center
Wed 11:58:19 PM 36.4506 -79.2561 58° Northeast 466 536 31,000  Level Washington Center
Wed 11:59:19 PM 36.5189 -79.1378 54° Northeast 459 528 31,000 -500 Level Washington Center
Thu 12:00:19 AM 36.5933 -79.0094 54° Northeast 459 528 30,000 -900 Descending Washington Center
Thu 12:01:19 AM 36.6703 -78.8703 55° Northeast 459 528 29,200 -500 Descending Washington Center
Thu 12:02:19 AM 36.7428 -78.7333 57° Northeast 464 534 29,000 -100 Descending Washington Center
Thu 12:03:19 AM 36.8108 -78.6064 56° Northeast 455 524 29,000  Level Washington Center
Thu 12:04:19 AM 36.8931 -78.4875 49° Northeast 450 518 29,000  Level Washington Center
Thu 12:05:19 AM 36.9867 -78.4078 34° Northeast 439 505 29,000  Level Washington Center
Thu 12:06:19 AM 37.0889 -78.3178 35° Northeast 444 511 29,000  Level Washington Center
Thu 12:07:19 AM 37.1933 -78.2250 35° Northeast 444 511 29,000  Level Washington Center
Thu 12:08:19 AM 37.3017 -78.1297 35° Northeast 444 511 29,000  Level Washington Center
Thu 12:09:19 AM 37.4039 -78.0336 37° Northeast 444 511 29,000  Level Washington Center
Thu 12:10:19 AM 37.5058 -77.9428 35° Northeast 444 511 29,000  Level Washington Center
Thu 12:11:19 AM 37.6078 -77.8489 36° Northeast 449 517 29,000 -1,200 Level Washington Center
Thu 12:12:19 AM 37.7117 -77.7547 36° Northeast 449 517 26,600 -2,550 Descending Washington Center
Thu 12:13:19 AM 37.8114 -77.6631 36° Northeast 449 517 23,900 -1,800 Descending Washington Center
Thu 12:14:19 AM 37.9067 -77.5761 36° Northeast 438 504 23,000 -450 Descending Washington Center
Thu 12:15:19 AM 38.0019 -77.4892 36° Northeast 427 491 23,000 -50 Level Washington Center
Thu 12:16:19 AM 38.0864 -77.4122 36° Northeast 422 486 22,900 -1,450 Descending Washington Center
Thu 12:17:19 AM 38.1922 -77.3142 36° Northeast 417 480 20,100 -2,500 Descending Washington Center
Thu 12:18:19 AM 38.2808 -77.2289 37° Northeast 411 473 17,900 -1,550 Descending Washington Center
Thu 12:19:19 AM 38.3553 -77.1300 46° Northeast 390 449 17,000 -950 Descending Washington Center
Thu 12:20:19 AM 38.4294 -77.0308 46° Northeast 383 441 16,000 -1,550 Descending Washington Center
Thu 12:21:19 AM 38.4994 -76.9342 47° Northeast 377 434 13,900 -2,150 Descending Washington Center
Thu 12:22:19 AM 38.5692 -76.8397 47° Northeast 367 422 11,700 -1,850 Descending Washington Center
Thu 12:23:19 AM 38.6347 -76.7531 46° Northeast 355 409 10,200 -1,400 Descending Washington Center
Thu 12:24:19 AM 38.6958 -76.6689 47° Northeast 332 382 8,900 -1,486 Descending Washington Center
Thu 12:25:04 AM 38.7333 -76.6167 47° Northeast 303 349 7,600 -1,459 Descending Potomac TRACON
Thu 12:26:10 AM 38.8000 -76.5333 44° Northeast 295 339 6,200 -1,095 Descending Potomac TRACON
Thu 12:27:10 AM 38.8667 -76.5333 360° North 263 303 5,300 -1,000 Descending Potomac TRACON
Thu 12:28:16 AM 38.9500 -76.5667 343° North 255 293 4,100 -1,048 Descending Potomac TRACON
Thu 12:29:16 AM 39.0167 -76.5833 349° North 250 288 3,100 -650 Descending Potomac TRACON
Thu 12:30:16 AM 39.0833 -76.6000 349° North 198 228 2,800 -895 Descending Potomac TRACON
Thu 12:31:10 AM 39.1167 -76.6167 339° North 160 184 1,400 -1,200 Descending Potomac TRACON
Thu 12:32:16 AM 39.1500 -76.6500 322° Northwest 126 145 400 -909 Descending Potomac TRACON
Thu 12:34:00 AM 39.1667 -76.6667 339° North  Level FlightAware Approximate
Thu 12:41:00 AM 39.1754 -76.6683 339° North  Level Estimated
Thu 12:42:00 AM 39.1754 -76.6683 339° North  Level Estimated
Thu 12:43:00 AM 39.1754 -76.6683 339° North  Level Estimated

Login

Don't have an account? Register now (free) for customized features, flight alerts, and more!